createdAt,value
2023-05-05T00:00:16.156Z,92.35
2023-05-05T00:03:20.835Z,93.27
2023-05-05T00:06:23.073Z,93.21
2023-05-05T00:09:25.183Z,92.86
2023-05-05T00:12:27.742Z,91.82
2023-05-05T00:15:29.792Z,92.85
2023-05-05T00:18:33.894Z,92.93
2023-05-05T00:21:36.026Z,92.66
2023-05-05T00:24:37.972Z,92.23
2023-05-05T00:27:41.042Z,92.33
2023-05-05T00:30:43.155Z,92.57
2023-05-05T00:33:45.445Z,92.99
2023-05-05T00:36:47.791Z,92.88
2023-05-05T00:39:49.861Z,92.50
2023-05-05T00:42:52.514Z,92.59
2023-05-05T00:46:06.534Z,92.56
2023-05-05T00:49:08.869Z,92.55
2023-05-05T00:52:11.600Z,92.79
2023-05-05T00:55:13.760Z,92.75
2023-05-05T00:58:15.848Z,93.10
2023-05-05T01:01:18.047Z,93.27
2023-05-05T01:04:19.981Z,92.92
2023-05-05T01:07:41.315Z,92.70
2023-05-05T01:10:55.250Z,92.40
2023-05-05T01:14:40.377Z,92.33
2023-05-05T01:17:47.950Z,92.74
2023-05-05T01:21:02.065Z,93.19
2023-05-05T01:24:39.100Z,93.91
2023-05-05T01:27:55.795Z,94.67
2023-05-05T01:31:18.031Z,94.76
2023-05-05T01:34:25.529Z,94.52
2023-05-05T01:37:49.411Z,95.13
2023-05-05T01:41:03.854Z,95.47
2023-05-05T01:44:08.368Z,95.22
2023-05-05T01:47:15.952Z,95.74
2023-05-05T01:50:18.834Z,95.38
2023-05-05T01:53:24.177Z,95.28
2023-05-05T01:56:27.556Z,95.23
2023-05-05T01:59:30.345Z,94.96
2023-05-05T02:02:35.232Z,94.72
2023-05-05T02:05:39.814Z,94.82
2023-05-05T02:08:43.798Z,94.59
2023-05-05T02:11:46.205Z,94.64
2023-05-05T02:14:49.370Z,94.55
2023-05-05T02:17:53.070Z,94.52
2023-05-05T02:20:56.102Z,94.61
2023-05-05T02:23:58.685Z,94.41
2023-05-05T02:27:04.046Z,94.17
2023-05-05T02:30:11.318Z,94.20
2023-05-05T02:33:18.209Z,94.48
2023-05-05T02:36:22.530Z,94.56
2023-05-05T02:39:35.933Z,94.27
2023-05-05T02:42:46.463Z,94.06
2023-05-05T02:45:48.549Z,94.24
2023-05-05T02:48:50.648Z,94.61
2023-05-05T02:51:52.785Z,94.80
2023-05-05T02:54:54.806Z,94.97
2023-05-05T02:58:14.318Z,95.12
2023-05-05T03:01:17.093Z,95.29
2023-05-05T03:04:41.852Z,95.46
2023-05-05T03:08:00.354Z,95.43
2023-05-05T03:11:08.076Z,95.25
2023-05-05T03:14:17.315Z,95.12
2023-05-05T03:17:21.709Z,95.33
2023-05-05T03:20:25.973Z,95.43
2023-05-05T03:23:28.075Z,95.49
2023-05-05T03:26:29.966Z,95.56
2023-05-05T03:29:31.906Z,95.47
2023-05-05T03:32:33.976Z,95.37
2023-05-05T03:35:36.118Z,95.82
2023-05-05T03:38:38.191Z,95.89
2023-05-05T03:41:40.191Z,96.02
2023-05-05T03:44:42.156Z,96.03
2023-05-05T03:47:44.161Z,96.13
2023-05-05T03:50:46.367Z,96.29
2023-05-05T03:53:48.305Z,96.24
2023-05-05T03:56:50.348Z,96.31
2023-05-05T03:59:52.683Z,96.13
2023-05-05T04:02:54.720Z,96.09
2023-05-05T04:05:56.724Z,95.83
2023-05-05T04:08:58.701Z,95.84
2023-05-05T04:12:01.630Z,95.75
2023-05-05T04:15:04.131Z,95.54
2023-05-05T04:18:06.206Z,95.54
2023-05-05T04:21:08.211Z,95.36
2023-05-05T04:24:10.456Z,95.26
2023-05-05T04:27:12.359Z,94.95
2023-05-05T04:30:15.056Z,94.97
2023-05-05T04:33:17.037Z,95.06
2023-05-05T04:36:19.294Z,94.88
2023-05-05T04:39:21.691Z,94.41
2023-05-05T04:42:23.938Z,93.69
2023-05-05T04:45:26.505Z,93.27
2023-05-05T04:48:28.562Z,93.17
2023-05-05T04:51:32.243Z,92.53
2023-05-05T04:54:37.541Z,91.33
2023-05-05T04:57:39.593Z,90.24
2023-05-05T05:00:41.523Z,89.93
2023-05-05T05:03:43.577Z,89.88
2023-05-05T05:06:46.186Z,89.50
2023-05-05T05:09:48.147Z,89.79
2023-05-05T05:12:50.480Z,89.77
2023-05-05T05:15:52.458Z,89.75
2023-05-05T05:18:54.854Z,89.39
2023-05-05T05:21:56.792Z,88.87
2023-05-05T05:24:59.236Z,88.47
2023-05-05T05:28:08.936Z,88.03
2023-05-05T05:31:12.356Z,87.47
2023-05-05T05:34:14.963Z,86.71
2023-05-05T05:37:17.095Z,86.11
2023-05-05T05:40:19.448Z,85.90
2023-05-05T05:43:21.417Z,85.46
2023-05-05T05:46:23.436Z,84.97
2023-05-05T05:49:25.867Z,84.07
2023-05-05T05:52:28.319Z,82.34
2023-05-05T05:55:30.428Z,80.18
2023-05-05T05:58:32.364Z,76.53
2023-05-05T06:01:35.515Z,75.03
2023-05-05T06:04:37.747Z,75.58
2023-05-05T06:07:39.825Z,73.88
2023-05-05T06:10:42.155Z,73.10
2023-05-05T06:13:44.226Z,71.00
2023-05-05T06:16:46.113Z,70.86
2023-05-05T06:19:48.179Z,67.48
2023-05-05T06:22:50.114Z,67.66
2023-05-05T06:25:53.410Z,64.82
2023-05-05T06:28:56.002Z,62.63
2023-05-05T06:31:58.146Z,62.64
2023-05-05T06:35:00.169Z,61.87
2023-05-05T06:38:02.149Z,59.76
2023-05-05T06:41:04.299Z,59.46
2023-05-05T06:44:06.860Z,58.36
2023-05-05T06:47:08.833Z,58.14
2023-05-05T06:50:11.468Z,57.46
2023-05-05T06:53:13.533Z,56.55
2023-05-05T06:56:15.655Z,56.13
2023-05-05T06:59:17.587Z,54.90
2023-05-05T07:02:19.641Z,55.86
2023-05-05T07:05:22.003Z,55.90
2023-05-05T07:08:25.505Z,54.61
2023-05-05T07:11:27.435Z,53.38
2023-05-05T07:14:29.383Z,54.10
2023-05-05T07:17:31.313Z,52.98
2023-05-05T07:20:33.391Z,53.14
2023-05-05T07:23:37.484Z,52.21
2023-05-05T07:26:40.161Z,52.66
2023-05-05T07:29:42.134Z,52.16
2023-05-05T07:32:44.321Z,52.84
2023-05-05T07:35:46.716Z,52.29
2023-05-05T07:38:48.895Z,51.18
2023-05-05T07:41:51.119Z,49.31
2023-05-05T07:44:53.146Z,48.44
2023-05-05T07:47:55.875Z,47.03
2023-05-05T07:50:58.267Z,47.66
2023-05-05T07:54:00.445Z,48.13
2023-05-05T07:57:02.417Z,47.00
2023-05-05T08:00:05.295Z,45.43
2023-05-05T08:03:11.320Z,46.86
2023-05-05T08:06:16.558Z,45.97
2023-05-05T08:09:18.671Z,44.05
2023-05-05T08:12:21.103Z,42.97
2023-05-05T08:15:23.164Z,42.53
2023-05-05T08:21:44.856Z,40.70
2023-05-05T08:24:46.895Z,41.10
2023-05-05T08:27:48.814Z,41.09
2023-05-05T08:30:50.985Z,40.94
2023-05-05T08:33:52.921Z,40.59
2023-05-05T08:36:54.799Z,39.85
2023-05-05T08:39:57.958Z,39.03
2023-05-05T08:43:01.536Z,40.30
2023-05-05T08:46:04.570Z,38.34
2023-05-05T08:49:09.592Z,38.20
2023-05-05T08:52:14.398Z,36.61
2023-05-05T08:55:26.937Z,38.55
2023-05-05T08:58:31.463Z,38.01
2023-05-05T09:01:35.097Z,38.28
2023-05-05T09:04:37.177Z,38.37
2023-05-05T09:07:43.811Z,36.58
2023-05-05T09:10:46.157Z,36.79
2023-05-05T09:17:22.282Z,36.29
2023-05-05T09:20:24.737Z,36.77
2023-05-05T09:23:26.721Z,36.87
2023-05-05T09:26:33.225Z,35.68
2023-05-05T09:29:35.724Z,35.85
2023-05-05T09:32:49.106Z,35.05
2023-05-05T09:35:53.997Z,33.76
2023-05-05T09:39:06.462Z,34.31
2023-05-05T09:42:19.083Z,35.43
2023-05-05T09:45:20.922Z,35.33
2023-05-05T09:48:30.951Z,33.42
2023-05-05T09:51:33.452Z,34.18
2023-05-05T09:54:35.537Z,35.19
2023-05-05T09:57:37.475Z,34.15
2023-05-05T10:00:39.737Z,34.36
2023-05-05T10:03:52.958Z,33.20
2023-05-05T10:06:57.139Z,31.72
2023-05-05T10:09:59.082Z,32.39
2023-05-05T10:13:01.915Z,32.28
2023-05-05T10:16:04.767Z,32.44
2023-05-05T10:19:07.099Z,33.71
2023-05-05T10:22:10.863Z,32.64
2023-05-05T10:25:16.067Z,30.91
2023-05-05T10:28:42.225Z,32.48
2023-05-05T10:31:54.330Z,32.13
2023-05-05T10:35:09.174Z,31.13
2023-05-05T10:38:13.244Z,30.46
2023-05-05T10:41:16.289Z,30.42
2023-05-05T10:44:18.416Z,29.88
2023-05-05T10:47:22.422Z,29.02
2023-05-05T10:50:24.337Z,31.38
2023-05-05T10:53:31.665Z,29.91
2023-05-05T10:56:36.153Z,29.91
2023-05-05T10:59:40.130Z,29.99
2023-05-05T11:02:42.310Z,28.54
2023-05-05T11:06:08.967Z,31.39
2023-05-05T11:09:29.773Z,33.77
2023-05-05T11:12:33.180Z,33.06
2023-05-05T11:15:37.957Z,30.54
2023-05-05T11:18:44.537Z,30.04
2023-05-05T11:22:02.544Z,30.77
2023-05-05T11:25:36.593Z,30.07
2023-05-05T11:29:08.529Z,31.97
2023-05-05T11:32:12.572Z,29.20
2023-05-05T11:35:15.619Z,31.25
2023-05-05T11:38:20.969Z,31.99
2023-05-05T11:41:51.775Z,30.90
2023-05-05T11:44:54.820Z,29.86
2023-05-05T11:48:27.160Z,28.73
2023-05-05T11:51:48.691Z,29.10
2023-05-05T11:54:51.462Z,29.93
2023-05-05T11:57:53.505Z,30.26
2023-05-05T12:00:55.608Z,30.33
2023-05-05T12:03:58.265Z,30.25
2023-05-05T12:07:00.737Z,31.18
2023-05-05T12:10:02.942Z,29.96
2023-05-05T12:13:20.114Z,28.73
2023-05-05T12:16:22.507Z,28.71
2023-05-05T12:19:30.118Z,28.13
2023-05-05T12:22:32.388Z,27.84
2023-05-05T12:25:40.678Z,28.09
2023-05-05T12:28:46.651Z,29.80
2023-05-05T12:31:49.125Z,30.69
2023-05-05T12:34:57.537Z,31.60
2023-05-05T12:38:00.008Z,32.88
2023-05-05T12:41:03.007Z,32.36
2023-05-05T12:44:05.360Z,33.87
2023-05-05T12:47:07.773Z,35.05
2023-05-05T12:50:10.509Z,36.38
2023-05-05T12:53:21.158Z,35.13
2023-05-05T12:56:33.638Z,34.78
2023-05-05T12:59:35.739Z,35.56
2023-05-05T13:02:38.006Z,36.87
2023-05-05T13:05:41.246Z,37.10
2023-05-05T13:08:43.866Z,36.20
2023-05-05T13:11:46.036Z,36.67
2023-05-05T13:14:48.489Z,36.71
2023-05-05T13:17:50.873Z,38.62
2023-05-05T13:20:52.912Z,38.43
2023-05-05T13:24:01.599Z,38.10
2023-05-05T13:27:14.204Z,37.13
2023-05-05T13:30:16.244Z,34.55
2023-05-05T13:33:18.271Z,34.20
2023-05-05T13:36:20.326Z,32.30
2023-05-05T13:39:22.818Z,31.68
2023-05-05T13:42:25.035Z,30.95
2023-05-05T13:45:26.989Z,30.91
2023-05-05T13:48:29.171Z,29.30
2023-05-05T13:51:31.241Z,29.69
2023-05-05T13:54:33.192Z,29.86
2023-05-05T13:57:35.194Z,30.02
2023-05-05T14:00:37.985Z,30.28
2023-05-05T14:03:40.145Z,29.83
2023-05-05T14:06:42.082Z,30.34
2023-05-05T14:09:44.134Z,31.09
2023-05-05T14:12:46.247Z,30.42
2023-05-05T14:15:50.368Z,31.26
2023-05-05T14:18:52.571Z,30.26
2023-05-05T14:21:54.561Z,29.40
2023-05-05T14:24:57.006Z,28.61
2023-05-05T14:27:58.970Z,28.93
2023-05-05T14:31:01.008Z,28.78
2023-05-05T14:34:03.225Z,31.28
2023-05-05T14:37:05.203Z,32.06
2023-05-05T14:40:07.838Z,32.57
2023-05-05T14:43:09.891Z,31.19
2023-05-05T14:46:12.000Z,30.66
2023-05-05T14:49:14.107Z,31.00
2023-05-05T14:52:16.076Z,31.66
2023-05-05T14:55:18.226Z,31.66
2023-05-05T14:58:22.480Z,31.05
2023-05-05T15:01:27.655Z,31.48
2023-05-05T15:04:29.752Z,30.74
2023-05-05T15:07:31.706Z,30.96
2023-05-05T15:10:33.780Z,31.61
2023-05-05T15:13:38.596Z,31.40
2023-05-05T15:16:41.062Z,31.65
2023-05-05T15:19:43.017Z,30.87
2023-05-05T15:22:45.058Z,31.17
2023-05-05T15:25:47.162Z,31.06
2023-05-05T15:28:50.420Z,30.98
2023-05-05T15:31:52.829Z,31.20
2023-05-05T15:34:56.378Z,31.64
2023-05-05T15:37:58.424Z,31.90
2023-05-05T15:41:00.560Z,32.40
2023-05-05T15:44:04.507Z,33.78
2023-05-05T15:47:11.001Z,33.67
2023-05-05T15:50:13.050Z,35.61
2023-05-05T15:53:15.084Z,35.21
2023-05-05T15:56:17.284Z,34.49
2023-05-05T15:59:19.423Z,34.50
2023-05-05T16:02:22.154Z,34.88
2023-05-05T16:05:24.144Z,34.10
2023-05-05T16:08:26.144Z,35.27
2023-05-05T16:11:28.568Z,35.59
2023-05-05T16:14:32.237Z,35.86
2023-05-05T16:17:34.299Z,35.88
2023-05-05T16:20:36.305Z,36.41
2023-05-05T16:23:38.404Z,37.49
2023-05-05T16:26:40.330Z,38.86
2023-05-05T16:29:42.209Z,40.37
2023-05-05T16:32:44.487Z,41.76
2023-05-05T16:35:46.661Z,41.66
2023-05-05T16:38:49.800Z,42.04
2023-05-05T16:41:52.585Z,40.78
2023-05-05T16:44:54.705Z,40.56
2023-05-05T16:47:56.733Z,40.56
2023-05-05T16:50:58.827Z,40.03
2023-05-05T16:54:00.942Z,40.02
2023-05-05T16:57:03.858Z,39.91
2023-05-05T17:00:07.333Z,40.05
2023-05-05T17:03:09.346Z,40.10
2023-05-05T17:06:13.079Z,41.41
2023-05-05T17:09:15.542Z,42.25
2023-05-05T17:12:17.712Z,42.38
2023-05-05T17:15:19.765Z,42.82
2023-05-05T17:18:22.830Z,42.92
2023-05-05T17:21:24.814Z,43.16
2023-05-05T17:24:26.818Z,42.93
2023-05-05T17:27:28.859Z,43.40
2023-05-05T17:30:30.949Z,44.13
2023-05-05T17:33:32.870Z,44.81
2023-05-05T17:36:35.545Z,45.30
2023-05-05T17:39:37.769Z,45.59
2023-05-05T17:42:40.635Z,45.54
2023-05-05T17:45:42.627Z,45.61
2023-05-05T17:48:45.015Z,45.91
2023-05-05T17:51:47.141Z,47.02
2023-05-05T17:54:49.863Z,47.11
2023-05-05T17:57:51.911Z,47.69
2023-05-05T18:00:53.861Z,47.76
2023-05-05T18:03:56.575Z,47.92
2023-05-05T18:06:58.550Z,48.65
2023-05-05T18:10:00.763Z,49.71
2023-05-05T18:13:02.814Z,49.48
2023-05-05T18:16:05.659Z,49.66
2023-05-05T18:19:08.215Z,49.73
2023-05-05T18:22:10.710Z,51.21
2023-05-05T18:25:12.944Z,51.40
2023-05-05T18:28:15.305Z,51.83
2023-05-05T18:31:17.479Z,52.34
2023-05-05T18:34:20.627Z,52.19
2023-05-05T18:37:22.695Z,52.63
2023-05-05T18:40:24.721Z,53.64
2023-05-05T18:43:26.856Z,53.94
2023-05-05T18:46:29.157Z,53.94
2023-05-05T18:49:31.742Z,55.06
2023-05-05T18:52:34.498Z,56.28
2023-05-05T18:55:36.877Z,57.12
2023-05-05T18:58:39.302Z,56.96
2023-05-05T19:01:43.017Z,58.43
2023-05-05T19:04:46.614Z,59.58
2023-05-05T19:07:49.070Z,60.00
2023-05-05T19:10:51.439Z,60.77
2023-05-05T19:13:53.658Z,61.17
2023-05-05T19:17:02.214Z,61.53
2023-05-05T19:20:04.704Z,61.84
2023-05-05T19:23:07.179Z,61.63
2023-05-05T19:26:10.405Z,61.73
2023-05-05T19:29:12.798Z,62.25
2023-05-05T19:32:15.082Z,63.02
2023-05-05T19:35:17.642Z,63.25
2023-05-05T19:38:19.536Z,63.98
2023-05-05T19:41:21.579Z,64.46
2023-05-05T19:44:23.895Z,64.57
2023-05-05T19:47:26.187Z,65.13
2023-05-05T19:50:30.379Z,65.26
2023-05-05T19:53:32.438Z,65.73
2023-05-05T19:56:34.438Z,65.47
2023-05-05T19:59:36.466Z,66.07
2023-05-05T20:02:38.800Z,65.84
2023-05-05T20:05:41.161Z,66.26
2023-05-05T20:08:43.145Z,66.62
2023-05-05T20:11:45.200Z,67.71
2023-05-05T20:14:47.518Z,68.72
2023-05-05T20:17:49.887Z,67.70
2023-05-05T20:20:51.898Z,67.75
2023-05-05T20:23:56.634Z,68.46
2023-05-05T20:26:58.653Z,69.04
2023-05-05T20:30:00.548Z,69.90
2023-05-05T20:33:02.655Z,70.10
2023-05-05T20:36:05.031Z,70.81
2023-05-05T20:39:08.117Z,71.32
2023-05-05T20:42:11.204Z,71.15
2023-05-05T20:45:13.457Z,71.58
2023-05-05T20:48:15.570Z,71.91
2023-05-05T20:51:17.500Z,71.45
2023-05-05T20:54:19.499Z,72.83
2023-05-05T20:57:21.743Z,72.74
2023-05-05T21:00:24.267Z,73.46
2023-05-05T21:03:26.327Z,73.63
2023-05-05T21:06:28.353Z,73.61
2023-05-05T21:09:31.652Z,73.78
2023-05-05T21:12:34.633Z,74.23
2023-05-05T21:15:37.612Z,74.29
2023-05-05T21:18:39.850Z,74.21
2023-05-05T21:21:41.824Z,74.22
2023-05-05T21:24:44.071Z,73.46
2023-05-05T21:27:48.032Z,73.71
2023-05-05T21:31:10.261Z,74.54
2023-05-05T21:34:13.585Z,74.83
2023-05-05T21:37:15.791Z,75.32
2023-05-05T21:40:23.008Z,75.44
2023-05-05T21:43:30.644Z,75.44
2023-05-05T21:46:32.805Z,75.87
2023-05-05T21:49:34.845Z,76.18
2023-05-05T21:52:36.928Z,75.97
2023-05-05T21:55:38.986Z,76.92
2023-05-05T21:58:41.614Z,77.77
2023-05-05T22:01:43.827Z,77.40
2023-05-05T22:04:48.801Z,77.90
2023-05-05T22:07:50.840Z,77.66
2023-05-05T22:10:52.890Z,78.02
2023-05-05T22:13:56.098Z,78.07
2023-05-05T22:16:58.130Z,78.58
2023-05-05T22:20:00.081Z,78.40
2023-05-05T22:23:02.052Z,79.02
2023-05-05T22:26:04.973Z,79.81
2023-05-05T22:29:07.063Z,80.06
2023-05-05T22:32:09.135Z,79.98
2023-05-05T22:35:11.290Z,80.07
2023-05-05T22:38:13.589Z,80.49
2023-05-05T22:41:16.136Z,80.24
2023-05-05T22:44:18.103Z,80.58
2023-05-05T22:47:20.133Z,81.03
2023-05-05T22:50:22.318Z,81.21
2023-05-05T22:53:24.535Z,81.00
2023-05-05T22:56:26.706Z,81.19
2023-05-05T22:59:28.655Z,81.20
2023-05-05T23:02:30.692Z,81.20
2023-05-05T23:05:34.465Z,81.50
2023-05-05T23:08:36.475Z,81.97
2023-05-05T23:11:38.615Z,81.76
2023-05-05T23:14:40.642Z,82.42
2023-05-05T23:17:42.666Z,82.54
2023-05-05T23:20:44.669Z,82.42
2023-05-05T23:23:48.533Z,82.33
2023-05-05T23:26:51.989Z,82.62
2023-05-05T23:29:53.905Z,82.39
2023-05-05T23:32:57.561Z,82.64
2023-05-05T23:35:59.615Z,82.51
2023-05-05T23:39:01.775Z,83.02
2023-05-05T23:42:03.785Z,83.09
2023-05-05T23:45:06.513Z,83.32
2023-05-05T23:48:08.800Z,83.57
2023-05-05T23:51:10.873Z,83.63
2023-05-05T23:54:12.783Z,83.59
2023-05-05T23:57:14.956Z,83.95
